sensor_id;sensor_type;location;lat;lon;timestamp;pressure;altitude;pressure_sealevel;temperature
64600;BMP280;6553;48.412;9.514;2023-08-17T00:01:50;72122.75;;;24.16
64600;BMP280;6553;48.412;9.514;2023-08-17T00:04:16;72118.91;;;24.15
64600;BMP280;6553;48.412;9.514;2023-08-17T00:06:42;72121.16;;;24.15
64600;BMP280;6553;48.412;9.514;2023-08-17T00:09:08;72119.56;;;24.13
64600;BMP280;6553;48.412;9.514;2023-08-17T00:11:35;72119.03;;;24.13
64600;BMP280;6553;48.412;9.514;2023-08-17T00:14:01;72118.50;;;24.12
64600;BMP280;6553;48.412;9.514;2023-08-17T00:16:27;72115.19;;;24.12
64600;BMP280;6553;48.412;9.514;2023-08-17T00:18:53;72112.50;;;24.09
64600;BMP280;6553;48.412;9.514;2023-08-17T00:21:18;72117.31;;;24.14
64600;BMP280;6553;48.412;9.514;2023-08-17T00:23:44;72116.78;;;24.13
64600;BMP280;6553;48.412;9.514;2023-08-17T00:26:10;72118.50;;;24.12
64600;BMP280;6553;48.412;9.514;2023-08-17T00:28:36;72117.44;;;24.11
64600;BMP280;6553;48.412;9.514;2023-08-17T00:31:03;72117.97;;;24.12
64600;BMP280;6553;48.412;9.514;2023-08-17T00:33:29;72112.38;;;24.12
64600;BMP280;6553;48.412;9.514;2023-08-17T00:35:55;72119.03;;;24.13
64600;BMP280;6553;48.412;9.514;2023-08-17T00:38:21;72115.72;;;24.12
64600;BMP280;6553;48.412;9.514;2023-08-17T00:40:47;72116.91;;;24.11
64600;BMP280;6553;48.412;9.514;2023-08-17T00:43:13;72113.03;;;24.10
64600;BMP280;6553;48.412;9.514;2023-08-17T00:45:40;72117.44;;;24.11
64600;BMP280;6553;48.412;9.514;2023-08-17T00:48:07;72116.38;;;24.10
64600;BMP280;6553;48.412;9.514;2023-08-17T00:50:35;72115.19;;;24.12
64600;BMP280;6553;48.412;9.514;2023-08-17T00:53:03;72115.28;;;24.09
64600;BMP280;6553;48.412;9.514;2023-08-17T00:55:30;72109.88;;;24.07
64600;BMP280;6553;48.412;9.514;2023-08-17T00:57:56;72110.91;;;24.08
64600;BMP280;6553;48.412;9.514;2023-08-17T01:00:24;72108.78;;;24.06
64600;BMP280;6553;48.412;9.514;2023-08-17T01:02:54;72117.56;;;24.09
64600;BMP280;6553;48.412;9.514;2023-08-17T01:05:21;72112.50;;;24.09
64600;BMP280;6553;48.412;9.514;2023-08-17T01:07:47;72108.66;;;24.08
64600;BMP280;6553;48.412;9.514;2023-08-17T01:10:14;72110.91;;;24.08
64600;BMP280;6553;48.412;9.514;2023-08-17T01:13:05;72110.91;;;24.08
64600;BMP280;6553;48.412;9.514;2023-08-17T01:15:45;72111.47;;;24.08
64600;BMP280;6553;48.412;9.514;2023-08-17T01:18:23;72113.19;;;24.07
64600;BMP280;6553;48.412;9.514;2023-08-17T01:20:50;72115.59;;;24.04
64600;BMP280;6553;48.412;9.514;2023-08-17T01:23:16;72113.72;;;24.08
64600;BMP280;6553;48.412;9.514;2023-08-17T01:25:41;72106.13;;;24.03
64600;BMP280;6553;48.412;9.514;2023-08-17T01:28:08;72109.31;;;24.06
64600;BMP280;6553;48.412;9.514;2023-08-17T01:30:49;72109.88;;;24.07
64600;BMP280;6553;48.412;9.514;2023-08-17T01:33:32;72111.06;;;24.05
64600;BMP280;6553;48.412;9.514;2023-08-17T01:36:18;72108.28;;;24.05
64600;BMP280;6553;48.412;9.514;2023-08-17T01:38:46;72098.16;;;23.96
64600;BMP280;6553;48.412;9.514;2023-08-17T01:41:13;72107.22;;;24.04
64600;BMP280;6553;48.412;9.514;2023-08-17T01:43:45;72112.78;;;24.04
64600;BMP280;6553;48.412;9.514;2023-08-17T01:46:17;72112.13;;;24.06
64600;BMP280;6553;48.412;9.514;2023-08-17T01:48:44;72109.47;;;24.04
64600;BMP280;6553;48.412;9.514;2023-08-17T01:51:15;72109.47;;;24.04
64600;BMP280;6553;48.412;9.514;2023-08-17T01:53:41;72105.47;;;24.05
64600;BMP280;6553;48.412;9.514;2023-08-17T01:56:07;72105.09;;;24.02
64600;BMP280;6553;48.412;9.514;2023-08-17T01:58:33;72099.63;;;24.00
64600;BMP280;6553;48.412;9.514;2023-08-17T02:00:59;72110.00;;;24.04
64600;BMP280;6553;48.412;9.514;2023-08-17T02:03:25;72102.97;;;24.00
64600;BMP280;6553;48.412;9.514;2023-08-17T02:05:56;72107.34;;;24.02
64600;BMP280;6553;48.412;9.514;2023-08-17T02:08:22;72104.66;;;23.99
64600;BMP280;6553;48.412;9.514;2023-08-17T02:10:48;72108.94;;;24.03
64600;BMP280;6553;48.412;9.514;2023-08-17T02:13:15;72106.69;;;24.04
64600;BMP280;6553;48.412;9.514;2023-08-17T02:15:41;72108.38;;;24.03
64600;BMP280;6553;48.412;9.514;2023-08-17T02:18:07;72105.59;;;24.03
64600;BMP280;6553;48.412;9.514;2023-08-17T02:20:34;72107.88;;;24.02
64600;BMP280;6553;48.412;9.514;2023-08-17T02:23:01;72111.31;;;24.00
64600;BMP280;6553;48.412;9.514;2023-08-17T02:25:27;72108.94;;;24.03
64600;BMP280;6553;48.412;9.514;2023-08-17T02:27:59;72105.09;;;24.02
64600;BMP280;6553;48.412;9.514;2023-08-17T02:30:25;72109.06;;;24.01
64600;BMP280;6553;48.412;9.514;2023-08-17T02:32:51;72104.13;;;23.99
64600;BMP280;6553;48.412;9.514;2023-08-17T02:35:17;72105.22;;;24.00
64600;BMP280;6553;48.412;9.514;2023-08-17T02:37:43;72108.00;;;24.00
64600;BMP280;6553;48.412;9.514;2023-08-17T02:40:10;72104.00;;;24.01
64600;BMP280;6553;48.412;9.514;2023-08-17T02:42:35;72105.75;;;24.00
64600;BMP280;6553;48.412;9.514;2023-08-17T02:45:01;72098.84;;;23.94
64600;BMP280;6553;48.412;9.514;2023-08-17T02:47:28;72099.78;;;23.97
64600;BMP280;6553;48.412;9.514;2023-08-17T02:49:54;72108.00;;;24.00
64600;BMP280;6553;48.412;9.514;2023-08-17T02:52:20;72103.06;;;23.98
64600;BMP280;6553;48.412;9.514;2023-08-17T02:54:45;72098.69;;;23.96
64600;BMP280;6553;48.412;9.514;2023-08-17T02:57:12;72103.06;;;23.98
64600;BMP280;6553;48.412;9.514;2023-08-17T02:59:39;72102.56;;;23.97
64600;BMP280;6553;48.412;9.514;2023-08-17T03:02:04;72099.22;;;23.97
64600;BMP280;6553;48.412;9.514;2023-08-17T03:04:30;72100.41;;;23.95
64600;BMP280;6553;48.412;9.514;2023-08-17T03:06:56;72100.94;;;23.96
64600;BMP280;6553;48.412;9.514;2023-08-17T03:09:21;72101.63;;;23.94
64600;BMP280;6553;48.412;9.514;2023-08-17T03:11:47;72099.78;;;23.97
64600;BMP280;6553;48.412;9.514;2023-08-17T03:14:13;72104.28;;;23.96
64600;BMP280;6553;48.412;9.514;2023-08-17T03:16:39;72102.03;;;23.97
64600;BMP280;6553;48.412;9.514;2023-08-17T03:19:05;72103.63;;;23.98
64600;BMP280;6553;48.412;9.514;2023-08-17T03:21:34;72099.91;;;23.95
64600;BMP280;6553;48.412;9.514;2023-08-17T03:23:59;72100.41;;;23.95
64600;BMP280;6553;48.412;9.514;2023-08-17T03:26:25;72094.97;;;23.93
64600;BMP280;6553;48.412;9.514;2023-08-17T03:28:51;72099.34;;;23.94
64600;BMP280;6553;48.412;9.514;2023-08-17T03:31:20;72098.97;;;23.91
64600;BMP280;6553;48.412;9.514;2023-08-17T03:33:48;72096.56;;;23.94
64600;BMP280;6553;48.412;9.514;2023-08-17T03:36:14;72103.19;;;23.95
64600;BMP280;6553;48.412;9.514;2023-08-17T03:38:40;72094.44;;;23.92
64600;BMP280;6553;48.412;9.514;2023-08-17T03:41:06;72097.75;;;23.93
64600;BMP280;6553;48.412;9.514;2023-08-17T03:43:32;72094.97;;;23.93
64600;BMP280;6553;48.412;9.514;2023-08-17T03:45:59;72098.84;;;23.94
64600;BMP280;6553;48.412;9.514;2023-08-17T03:48:25;72095.50;;;23.93
64600;BMP280;6553;48.412;9.514;2023-08-17T03:50:55;72099.34;;;23.94
64600;BMP280;6553;48.412;9.514;2023-08-17T03:53:21;72096.56;;;23.94
64600;BMP280;6553;48.412;9.514;2023-08-17T03:55:50;72094.97;;;23.93
64600;BMP280;6553;48.412;9.514;2023-08-17T03:58:18;72095.13;;;23.90
64600;BMP280;6553;48.412;9.514;2023-08-17T04:00:51;72098.31;;;23.93
64600;BMP280;6553;48.412;9.514;2023-08-17T04:03:20;72095.50;;;23.93
64600;BMP280;6553;48.412;9.514;2023-08-17T04:05:46;72098.84;;;23.94
64600;BMP280;6553;48.412;9.514;2023-08-17T04:08:11;72093.91;;;23.92
64600;BMP280;6553;48.412;9.514;2023-08-17T04:10:37;72087.13;;;23.83
64600;BMP280;6553;48.412;9.514;2023-08-17T04:13:03;72092.97;;;23.88
64600;BMP280;6553;48.412;9.514;2023-08-17T04:15:29;72096.16;;;23.91
64600;BMP280;6553;48.412;9.514;2023-08-17T04:17:54;72097.22;;;23.92
64600;BMP280;6553;48.412;9.514;2023-08-17T04:20:20;72097.91;;;23.90
64600;BMP280;6553;48.412;9.514;2023-08-17T04:22:47;72090.19;;;23.88
64600;BMP280;6553;48.412;9.514;2023-08-17T04:25:13;72096.69;;;23.92
64600;BMP280;6553;48.412;9.514;2023-08-17T04:27:39;72096.84;;;23.89
64600;BMP280;6553;48.412;9.514;2023-08-17T04:30:06;72098.41;;;23.91
64600;BMP280;6553;48.412;9.514;2023-08-17T04:32:41;72093.09;;;23.86
64600;BMP280;6553;48.412;9.514;2023-08-17T04:35:07;72091.25;;;23.89
64600;BMP280;6553;48.412;9.514;2023-08-17T04:37:33;72089.78;;;23.85
64600;BMP280;6553;48.412;9.514;2023-08-17T04:39:58;72095.25;;;23.88
64600;BMP280;6553;48.412;9.514;2023-08-17T04:42:26;72090.84;;;23.86
64600;BMP280;6553;48.412;9.514;2023-08-17T04:44:52;72090.84;;;23.86
64600;BMP280;6553;48.412;9.514;2023-08-17T04:47:18;72089.13;;;23.87
64600;BMP280;6553;48.412;9.514;2023-08-17T04:49:44;72087.53;;;23.86
64600;BMP280;6553;48.412;9.514;2023-08-17T04:52:09;72089.25;;;23.85
64600;BMP280;6553;48.412;9.514;2023-08-17T04:54:35;72090.19;;;23.88
64600;BMP280;6553;48.412;9.514;2023-08-17T04:57:02;72090.47;;;23.83
64600;BMP280;6553;48.412;9.514;2023-08-17T04:59:29;72093.09;;;23.86
64600;BMP280;6553;48.412;9.514;2023-08-17T05:01:54;72091.25;;;23.89
64600;BMP280;6553;48.412;9.514;2023-08-17T05:04:20;72086.34;;;23.87
64600;BMP280;6553;48.412;9.514;2023-08-17T05:06:46;72093.09;;;23.86
64600;BMP280;6553;48.412;9.514;2023-08-17T05:09:12;72088.72;;;23.84
64600;BMP280;6553;48.412;9.514;2023-08-17T05:11:39;72092.56;;;23.85
64600;BMP280;6553;48.412;9.514;2023-08-17T05:14:04;72087.53;;;23.86
64600;BMP280;6553;48.412;9.514;2023-08-17T05:16:30;72089.25;;;23.85
64600;BMP280;6553;48.412;9.514;2023-08-17T05:18:56;72087.53;;;23.86
64600;BMP280;6553;48.412;9.514;2023-08-17T05:21:24;72088.06;;;23.86
64600;BMP280;6553;48.412;9.514;2023-08-17T05:23:49;72092.56;;;23.85
64600;BMP280;6553;48.412;9.514;2023-08-17T05:26:16;72088.72;;;23.84
64600;BMP280;6553;48.412;9.514;2023-08-17T05:28:42;72088.72;;;23.84
64600;BMP280;6553;48.412;9.514;2023-08-17T05:31:09;72084.88;;;23.83
64600;BMP280;6553;48.412;9.514;2023-08-17T05:33:39;72094.31;;;23.84
64600;BMP280;6553;48.412;9.514;2023-08-17T05:36:07;72087.69;;;23.83
64600;BMP280;6553;48.412;9.514;2023-08-17T05:38:33;72089.38;;;23.82
64600;BMP280;6553;48.412;9.514;2023-08-17T05:40:59;72089.94;;;23.83
64600;BMP280;6553;48.412;9.514;2023-08-17T05:43:27;72091.53;;;23.84
64600;BMP280;6553;48.412;9.514;2023-08-17T05:45:53;72087.69;;;23.83
64600;BMP280;6553;48.412;9.514;2023-08-17T05:48:19;72091.53;;;23.84
64600;BMP280;6553;48.412;9.514;2023-08-17T05:50:47;72089.78;;;23.85
64600;BMP280;6553;48.412;9.514;2023-08-17T05:53:13;72085.94;;;23.84
64600;BMP280;6553;48.412;9.514;2023-08-17T05:55:39;72090.47;;;23.83
64600;BMP280;6553;48.412;9.514;2023-08-17T05:58:04;72084.88;;;23.83
64600;BMP280;6553;48.412;9.514;2023-08-17T06:00:30;72085.94;;;23.84
64600;BMP280;6553;48.412;9.514;2023-08-17T06:02:56;72091.53;;;23.84
64600;BMP280;6553;48.412;9.514;2023-08-17T06:05:27;72086.47;;;23.85
64600;BMP280;6553;48.412;9.514;2023-08-17T06:07:55;72089.25;;;23.85
64600;BMP280;6553;48.412;9.514;2023-08-17T06:10:21;72088.19;;;23.84
64600;BMP280;6553;48.412;9.514;2023-08-17T06:12:53;72089.66;;;23.88
64600;BMP280;6553;48.412;9.514;2023-08-17T06:15:19;72095.25;;;23.88
64600;BMP280;6553;48.412;9.514;2023-08-17T06:17:45;72091.25;;;23.89
64600;BMP280;6553;48.412;9.514;2023-08-17T06:20:11;72092.31;;;23.90
64600;BMP280;6553;48.412;9.514;2023-08-17T06:22:37;72091.25;;;23.89
64600;BMP280;6553;48.412;9.514;2023-08-17T06:25:04;72090.72;;;23.89
64600;BMP280;6553;48.412;9.514;2023-08-17T06:27:31;72093.38;;;23.91
64600;BMP280;6553;48.412;9.514;2023-08-17T06:29:57;72095.63;;;23.91
64600;BMP280;6553;48.412;9.514;2023-08-17T06:32:23;72090.59;;;23.91
64600;BMP280;6553;48.412;9.514;2023-08-17T06:34:49;72097.75;;;23.93
64600;BMP280;6553;48.412;9.514;2023-08-17T06:37:15;72091.66;;;23.92
64600;BMP280;6553;48.412;9.514;2023-08-17T06:39:40;72096.69;;;23.92
64600;BMP280;6553;48.412;9.514;2023-08-17T06:42:06;72096.69;;;23.92
64600;BMP280;6553;48.412;9.514;2023-08-17T06:44:32;72095.50;;;23.93
64600;BMP280;6553;48.412;9.514;2023-08-17T06:46:58;72097.22;;;23.92
64600;BMP280;6553;48.412;9.514;2023-08-17T06:49:26;72101.50;;;23.96
64600;BMP280;6553;48.412;9.514;2023-08-17T06:51:53;72093.38;;;23.91
64600;BMP280;6553;48.412;9.514;2023-08-17T06:54:18;72107.06;;;23.96
64600;BMP280;6553;48.412;9.514;2023-08-17T06:56:44;72100.28;;;23.98
64600;BMP280;6553;48.412;9.514;2023-08-17T06:59:10;72097.09;;;23.95
64600;BMP280;6553;48.412;9.514;2023-08-17T07:01:35;72104.66;;;23.99
64600;BMP280;6553;48.412;9.514;2023-08-17T07:04:02;72095.91;;;23.96
64600;BMP280;6553;48.412;9.514;2023-08-17T07:06:27;72100.28;;;23.98
64600;BMP280;6553;48.412;9.514;2023-08-17T07:08:54;72099.78;;;23.97
64600;BMP280;6553;48.412;9.514;2023-08-17T07:11:20;72099.78;;;23.97
64600;BMP280;6553;48.412;9.514;2023-08-17T07:13:46;72095.25;;;23.98
64600;BMP280;6553;48.412;9.514;2023-08-17T07:16:12;72105.34;;;23.97
64600;BMP280;6553;48.412;9.514;2023-08-17T07:18:38;72102.97;;;24.00
64600;BMP280;6553;48.412;9.514;2023-08-17T07:21:04;72105.09;;;24.02
64600;BMP280;6553;48.412;9.514;2023-08-17T07:23:29;72108.94;;;24.03
64600;BMP280;6553;48.412;9.514;2023-08-17T07:25:55;72107.34;;;24.02
64600;BMP280;6553;48.412;9.514;2023-08-17T07:28:21;72105.09;;;24.02
64600;BMP280;6553;48.412;9.514;2023-08-17T07:30:47;72106.13;;;24.03
64600;BMP280;6553;48.412;9.514;2023-08-17T07:33:12;72113.72;;;24.08
64600;BMP280;6553;48.412;9.514;2023-08-17T07:35:38;72109.31;;;24.06
64600;BMP280;6553;48.412;9.514;2023-08-17T07:38:04;72115.97;;;24.07
64600;BMP280;6553;48.412;9.514;2023-08-17T07:40:29;72112.00;;;24.09
64600;BMP280;6553;48.412;9.514;2023-08-17T07:42:55;72111.34;;;24.11
64600;BMP280;6553;48.412;9.514;2023-08-17T07:45:21;72117.44;;;24.11
64600;BMP280;6553;48.412;9.514;2023-08-17T07:47:46;72119.56;;;24.13
64600;BMP280;6553;48.412;9.514;2023-08-17T07:50:12;72118.50;;;24.12
64600;BMP280;6553;48.412;9.514;2023-08-17T07:52:38;72116.25;;;24.13
64600;BMP280;6553;48.412;9.514;2023-08-17T07:55:04;72119.56;;;24.13
64600;BMP280;6553;48.412;9.514;2023-08-17T07:57:30;72116.78;;;24.13
64600;BMP280;6553;48.412;9.514;2023-08-17T07:59:56;72126.47;;;24.20
64600;BMP280;6553;48.412;9.514;2023-08-17T08:02:22;72129.28;;;24.20
64600;BMP280;6553;48.412;9.514;2023-08-17T08:04:47;72127.41;;;24.23
64600;BMP280;6553;48.412;9.514;2023-08-17T08:07:13;72136.19;;;24.26
64600;BMP280;6553;48.412;9.514;2023-08-17T08:09:39;72132.19;;;24.28
64600;BMP280;6553;48.412;9.514;2023-08-17T08:12:05;72133.25;;;24.29
64600;BMP280;6553;48.412;9.514;2023-08-17T08:14:34;72136.56;;;24.29
64600;BMP280;6553;48.412;9.514;2023-08-17T08:17:00;72133.78;;;24.29
64600;BMP280;6553;48.412;9.514;2023-08-17T08:19:26;72134.31;;;24.30
64600;BMP280;6553;48.412;9.514;2023-08-17T08:21:51;72138.31;;;24.28
64600;BMP280;6553;48.412;9.514;2023-08-17T08:24:17;72131.13;;;24.27
64600;BMP280;6553;48.412;9.514;2023-08-17T08:26:43;72132.19;;;24.28
64600;BMP280;6553;48.412;9.514;2023-08-17T08:29:09;72132.19;;;24.28
64600;BMP280;6553;48.412;9.514;2023-08-17T08:31:35;72132.19;;;24.28
64600;BMP280;6553;48.412;9.514;2023-08-17T08:34:01;72129.00;;;24.25
64600;BMP280;6553;48.412;9.514;2023-08-17T08:36:26;72130.59;;;24.26
64600;BMP280;6553;48.412;9.514;2023-08-17T08:38:52;72132.06;;;24.30
64600;BMP280;6553;48.412;9.514;2023-08-17T08:41:19;72136.97;;;24.32
64600;BMP280;6553;48.412;9.514;2023-08-17T08:43:45;72139.75;;;24.32
64600;BMP280;6553;48.412;9.514;2023-08-17T08:46:12;72138.56;;;24.34
64600;BMP280;6553;48.412;9.514;2023-08-17T08:48:41;72140.84;;;24.33
64600;BMP280;6553;48.412;9.514;2023-08-17T08:51:11;72138.72;;;24.31
64600;BMP280;6553;48.412;9.514;2023-08-17T08:53:44;72139.09;;;24.34
64600;BMP280;6553;48.412;9.514;2023-08-17T08:56:18;72142.28;;;24.37
64600;BMP280;6553;48.412;9.514;2023-08-17T08:58:47;72144.03;;;24.36
64600;BMP280;6553;48.412;9.514;2023-08-17T09:01:13;72135.91;;;24.31
64600;BMP280;6553;48.412;9.514;2023-08-17T09:03:41;72136.56;;;24.29
64600;BMP280;6553;48.412;9.514;2023-08-17T09:06:09;72134.44;;;24.27
64600;BMP280;6553;48.412;9.514;2023-08-17T09:08:35;72134.44;;;24.27
64600;BMP280;6553;48.412;9.514;2023-08-17T09:11:01;72130.59;;;24.26
64600;BMP280;6553;48.412;9.514;2023-08-17T09:13:26;72133.38;;;24.26
64600;BMP280;6553;48.412;9.514;2023-08-17T09:15:52;72128.34;;;24.27
64600;BMP280;6553;48.412;9.514;2023-08-17T09:18:19;72131.66;;;24.27
64600;BMP280;6553;48.412;9.514;2023-08-17T09:20:47;72130.59;;;24.26
64600;BMP280;6553;48.412;9.514;2023-08-17T09:23:15;72133.91;;;24.27
64600;BMP280;6553;48.412;9.514;2023-08-17T09:25:44;72129.41;;;24.28
64600;BMP280;6553;48.412;9.514;2023-08-17T09:28:12;72128.88;;;24.27
64600;BMP280;6553;48.412;9.514;2023-08-17T09:30:54;72128.88;;;24.27
64600;BMP280;6553;48.412;9.514;2023-08-17T09:33:22;72131.13;;;24.27
64600;BMP280;6553;48.412;9.514;2023-08-17T09:35:50;72133.38;;;24.26
64600;BMP280;6553;48.412;9.514;2023-08-17T09:38:17;72131.13;;;24.27
64600;BMP280;6553;48.412;9.514;2023-08-17T09:40:42;72136.03;;;24.29
64600;BMP280;6553;48.412;9.514;2023-08-17T09:43:09;72136.56;;;24.29
64600;BMP280;6553;48.412;9.514;2023-08-17T09:45:37;72135.53;;;24.28
64600;BMP280;6553;48.412;9.514;2023-08-17T09:48:04;72134.44;;;24.27
64600;BMP280;6553;48.412;9.514;2023-08-17T09:50:30;72136.03;;;24.29
64600;BMP280;6553;48.412;9.514;2023-08-17T09:52:55;72140.41;;;24.30
64600;BMP280;6553;48.412;9.514;2023-08-17T09:55:22;72133.78;;;24.29
64600;BMP280;6553;48.412;9.514;2023-08-17T09:57:50;72129.94;;;24.28
64600;BMP280;6553;48.412;9.514;2023-08-17T10:00:19;72132.72;;;24.28
64600;BMP280;6553;48.412;9.514;2023-08-17T10:02:45;72138.72;;;24.31
64600;BMP280;6553;48.412;9.514;2023-08-17T10:05:18;72132.19;;;24.28
64600;BMP280;6553;48.412;9.514;2023-08-17T10:07:54;72136.19;;;24.26
64600;BMP280;6553;48.412;9.514;2023-08-17T10:10:26;72131.00;;;24.29
64600;BMP280;6553;48.412;9.514;2023-08-17T10:13:09;72129.53;;;24.25
64600;BMP280;6553;48.412;9.514;2023-08-17T10:15:52;72134.31;;;24.30
64600;BMP280;6553;48.412;9.514;2023-08-17T10:18:29;72137.13;;;24.30
64600;BMP280;6553;48.412;9.514;2023-08-17T10:21:10;72134.84;;;24.30
64600;BMP280;6553;48.412;9.514;2023-08-17T10:23:39;72137.63;;;24.30
64600;BMP280;6553;48.412;9.514;2023-08-17T10:26:06;72136.47;;;24.32
64600;BMP280;6553;48.412;9.514;2023-08-17T10:28:34;72135.38;;;24.31
64600;BMP280;6553;48.412;9.514;2023-08-17T10:31:00;72128.22;;;24.29
64600;BMP280;6553;48.412;9.514;2023-08-17T10:33:28;72138.72;;;24.31
64600;BMP280;6553;48.412;9.514;2023-08-17T10:35:55;72135.25;;;24.33
64600;BMP280;6553;48.412;9.514;2023-08-17T10:38:22;72139.75;;;24.32
64600;BMP280;6553;48.412;9.514;2023-08-17T10:41:12;72143.09;;;24.33
64600;BMP280;6553;48.412;9.514;2023-08-17T10:46:21;72137.50;;;24.33
64600;BMP280;6553;48.412;9.514;2023-08-17T10:48:46;72144.16;;;24.34
64600;BMP280;6553;48.412;9.514;2023-08-17T10:51:12;72138.56;;;24.34
64600;BMP280;6553;48.412;9.514;2023-08-17T10:53:45;72139.09;;;24.34
64600;BMP280;6553;48.412;9.514;2023-08-17T10:56:13;72139.09;;;24.34
64600;BMP280;6553;48.412;9.514;2023-08-17T10:58:42;72138.97;;;24.37
64600;BMP280;6553;48.412;9.514;2023-08-17T11:01:08;72142.97;;;24.35
64600;BMP280;6553;48.412;9.514;2023-08-17T11:03:34;72133.13;;;24.31
64600;BMP280;6553;48.412;9.514;2023-08-17T11:06:16;72140.19;;;24.35
64600;BMP280;6553;48.412;9.514;2023-08-17T11:08:55;72139.63;;;24.35
64600;BMP280;6553;48.412;9.514;2023-08-17T11:11:22;72139.09;;;24.34
64600;BMP280;6553;48.412;9.514;2023-08-17T11:13:53;72138.56;;;24.34
64600;BMP280;6553;48.412;9.514;2023-08-17T11:16:19;72152.00;;;24.33
64600;BMP280;6553;48.412;9.514;2023-08-17T11:18:46;72138.56;;;24.34
64600;BMP280;6553;48.412;9.514;2023-08-17T11:21:12;72139.25;;;24.32
64600;BMP280;6553;48.412;9.514;2023-08-17T11:23:40;72136.31;;;24.34
64600;BMP280;6553;48.412;9.514;2023-08-17T11:26:07;72135.13;;;24.36
64600;BMP280;6553;48.412;9.514;2023-08-17T11:28:34;72140.69;;;24.36
64600;BMP280;6553;48.412;9.514;2023-08-17T11:31:09;72141.22;;;24.36
64600;BMP280;6553;48.412;9.514;2023-08-17T11:33:37;72141.78;;;24.37
64600;BMP280;6553;48.412;9.514;2023-08-17T11:36:08;72141.22;;;24.36
64600;BMP280;6553;48.412;9.514;2023-08-17T11:38:42;72147.34;;;24.37
64600;BMP280;6553;48.412;9.514;2023-08-17T11:41:10;72141.78;;;24.37
64600;BMP280;6553;48.412;9.514;2023-08-17T11:43:36;72145.63;;;24.38
64600;BMP280;6553;48.412;9.514;2023-08-17T11:46:03;72142.97;;;24.35
64600;BMP280;6553;48.412;9.514;2023-08-17T11:48:29;72138.97;;;24.37
64600;BMP280;6553;48.412;9.514;2023-08-17T11:50:55;72141.22;;;24.36
64600;BMP280;6553;48.412;9.514;2023-08-17T11:53:21;72140.56;;;24.38
64600;BMP280;6553;48.412;9.514;2023-08-17T11:55:48;72146.16;;;24.38
64600;BMP280;6553;48.412;9.514;2023-08-17T11:58:15;72139.50;;;24.37
64600;BMP280;6553;48.412;9.514;2023-08-17T12:00:43;72143.91;;;24.39
64600;BMP280;6553;48.412;9.514;2023-08-17T12:03:15;72140.56;;;24.38
64600;BMP280;6553;48.412;9.514;2023-08-17T12:05:44;72143.34;;;24.38
64600;BMP280;6553;48.412;9.514;2023-08-17T12:08:10;72146.16;;;24.38
64600;BMP280;6553;48.412;9.514;2023-08-17T12:10:37;72142.16;;;24.40
64600;BMP280;6553;48.412;9.514;2023-08-17T12:13:04;72142.81;;;24.38
64600;BMP280;6553;48.412;9.514;2023-08-17T12:15:34;72144.94;;;24.40
64600;BMP280;6553;48.412;9.514;2023-08-17T12:18:03;72148.28;;;24.40
64600;BMP280;6553;48.412;9.514;2023-08-17T12:20:32;72150.53;;;24.40
64600;BMP280;6553;48.412;9.514;2023-08-17T12:22:59;72145.06;;;24.37
64600;BMP280;6553;48.412;9.514;2023-08-17T12:25:25;72145.22;;;24.35
64600;BMP280;6553;48.412;9.514;2023-08-17T12:27:51;72144.41;;;24.39
64600;BMP280;6553;48.412;9.514;2023-08-17T12:30:29;72144.56;;;24.37
64600;BMP280;6553;48.412;9.514;2023-08-17T12:32:58;72146.28;;;24.36
64600;BMP280;6553;48.412;9.514;2023-08-17T12:35:25;72139.50;;;24.37
64600;BMP280;6553;48.412;9.514;2023-08-17T12:37:55;72150.00;;;24.39
64600;BMP280;6553;48.412;9.514;2023-08-17T12:40:21;72145.50;;;24.40
64600;BMP280;6553;48.412;9.514;2023-08-17T12:42:47;72144.41;;;24.39
64600;BMP280;6553;48.412;9.514;2023-08-17T12:45:14;72147.75;;;24.40
64600;BMP280;6553;48.412;9.514;2023-08-17T12:47:41;72143.91;;;24.39
64600;BMP280;6553;48.412;9.514;2023-08-17T12:50:07;72148.28;;;24.40
64600;BMP280;6553;48.412;9.514;2023-08-17T12:52:34;72146.53;;;24.41
64600;BMP280;6553;48.412;9.514;2023-08-17T12:55:00;72143.34;;;24.38
64600;BMP280;6553;48.412;9.514;2023-08-17T12:57:25;72147.09;;;24.42
64600;BMP280;6553;48.412;9.514;2023-08-17T12:59:52;72152.66;;;24.42
64600;BMP280;6553;48.412;9.514;2023-08-17T13:02:20;72147.63;;;24.42
64600;BMP280;6553;48.412;9.514;2023-08-17T13:04:46;72144.94;;;24.40
64600;BMP280;6553;48.412;9.514;2023-08-17T13:07:12;72145.50;;;24.40
64600;BMP280;6553;48.412;9.514;2023-08-17T13:09:37;72151.06;;;24.40
64600;BMP280;6553;48.412;9.514;2023-08-17T13:12:03;72146.53;;;24.41
64600;BMP280;6553;48.412;9.514;2023-08-17T13:14:29;72151.06;;;24.40
64600;BMP280;6553;48.412;9.514;2023-08-17T13:16:55;72148.81;;;24.41
64600;BMP280;6553;48.412;9.514;2023-08-17T13:19:21;72149.34;;;24.41
64600;BMP280;6553;48.412;9.514;2023-08-17T13:21:46;72146.00;;;24.41
64600;BMP280;6553;48.412;9.514;2023-08-17T13:24:13;72146.69;;;24.39
64600;BMP280;6553;48.412;9.514;2023-08-17T13:26:39;72144.94;;;24.40
64600;BMP280;6553;48.412;9.514;2023-08-17T13:29:04;72148.28;;;24.40
64600;BMP280;6553;48.412;9.514;2023-08-17T13:31:30;72145.50;;;24.40
64600;BMP280;6553;48.412;9.514;2023-08-17T13:33:56;72151.06;;;24.40
64600;BMP280;6553;48.412;9.514;2023-08-17T13:36:22;72146.53;;;24.41
64600;BMP280;6553;48.412;9.514;2023-08-17T13:38:48;72148.28;;;24.40
64600;BMP280;6553;48.412;9.514;2023-08-17T13:41:14;72147.75;;;24.40
64600;BMP280;6553;48.412;9.514;2023-08-17T13:43:40;72146.53;;;24.41
64600;BMP280;6553;48.412;9.514;2023-08-17T13:46:06;72149.88;;;24.42
64600;BMP280;6553;48.412;9.514;2023-08-17T13:48:32;72143.22;;;24.41
64600;BMP280;6553;48.412;9.514;2023-08-17T13:50:58;72150.41;;;24.42
64600;BMP280;6553;48.412;9.514;2023-08-17T13:53:23;72148.81;;;24.41
64600;BMP280;6553;48.412;9.514;2023-08-17T13:55:49;72142.69;;;24.40
64600;BMP280;6553;48.412;9.514;2023-08-17T13:58:15;72147.22;;;24.39
64600;BMP280;6553;48.412;9.514;2023-08-17T14:00:41;72141.09;;;24.39
64600;BMP280;6553;48.412;9.514;2023-08-17T14:03:08;72139.91;;;24.40
64600;BMP280;6553;48.412;9.514;2023-08-17T14:05:34;72148.28;;;24.40
64600;BMP280;6553;48.412;9.514;2023-08-17T14:08:00;72148.28;;;24.40
64600;BMP280;6553;48.412;9.514;2023-08-17T14:10:26;72147.22;;;24.39
64600;BMP280;6553;48.412;9.514;2023-08-17T14:12:51;72148.28;;;24.40
64600;BMP280;6553;48.412;9.514;2023-08-17T14:15:17;72141.78;;;24.37
64600;BMP280;6553;48.412;9.514;2023-08-17T14:17:43;72153.31;;;24.40
64600;BMP280;6553;48.412;9.514;2023-08-17T14:20:09;72146.69;;;24.39
64600;BMP280;6553;48.412;9.514;2023-08-17T14:22:35;72150.53;;;24.40
64600;BMP280;6553;48.412;9.514;2023-08-17T14:25:01;72148.81;;;24.41